sensor_id;sensor_type;location;lat;lon;timestamp;P1;durP1;ratioP1;P2;durP2;ratioP2
10313;SDS011;5202;49.138;10.090;2022-09-13T00:01:09;5.30;;;3.90;;
10313;SDS011;5202;49.138;10.090;2022-09-13T00:03:38;4.30;;;3.90;;
10313;SDS011;5202;49.138;10.090;2022-09-13T00:06:31;4.70;;;4.30;;
10313;SDS011;5202;49.138;10.090;2022-09-13T00:08:59;4.97;;;4.30;;
10313;SDS011;5202;49.138;10.090;2022-09-13T00:11:28;4.13;;;3.83;;
10313;SDS011;5202;49.138;10.090;2022-09-13T00:13:57;5.70;;;4.37;;
10313;SDS011;5202;49.138;10.090;2022-09-13T00:16:26;6.17;;;4.00;;
10313;SDS011;5202;49.138;10.090;2022-09-13T00:18:56;5.20;;;3.90;;
10313;SDS011;5202;49.138;10.090;2022-09-13T00:21:26;4.47;;;4.07;;
10313;SDS011;5202;49.138;10.090;2022-09-13T00:23:55;6.70;;;4.03;;
10313;SDS011;5202;49.138;10.090;2022-09-13T00:26:24;4.57;;;4.10;;
10313;SDS011;5202;49.138;10.090;2022-09-13T00:28:55;5.13;;;4.07;;
10313;SDS011;5202;49.138;10.090;2022-09-13T00:31:26;4.50;;;3.97;;
10313;SDS011;5202;49.138;10.090;2022-09-13T00:33:57;4.30;;;3.67;;
10313;SDS011;5202;49.138;10.090;2022-09-13T00:36:26;4.33;;;3.87;;
10313;SDS011;5202;49.138;10.090;2022-09-13T00:38:56;4.20;;;3.50;;
10313;SDS011;5202;49.138;10.090;2022-09-13T00:41:26;4.80;;;4.40;;
10313;SDS011;5202;49.138;10.090;2022-09-13T00:43:55;4.20;;;3.80;;
10313;SDS011;5202;49.138;10.090;2022-09-13T00:46:27;4.30;;;3.93;;
10313;SDS011;5202;49.138;10.090;2022-09-13T00:49:02;4.00;;;3.70;;
10313;SDS011;5202;49.138;10.090;2022-09-13T00:51:39;5.17;;;4.23;;
10313;SDS011;5202;49.138;10.090;2022-09-13T00:54:13;4.30;;;3.90;;
10313;SDS011;5202;49.138;10.090;2022-09-13T00:56:45;4.10;;;3.70;;
10313;SDS011;5202;49.138;10.090;2022-09-13T00:59:19;4.50;;;3.83;;
10313;SDS011;5202;49.138;10.090;2022-09-13T01:01:54;6.30;;;4.30;;
10313;SDS011;5202;49.138;10.090;2022-09-13T01:04:24;4.37;;;3.70;;
10313;SDS011;5202;49.138;10.090;2022-09-13T01:06:55;4.43;;;3.93;;
10313;SDS011;5202;49.138;10.090;2022-09-13T01:09:29;5.73;;;3.87;;
10313;SDS011;5202;49.138;10.090;2022-09-13T01:12:02;4.13;;;3.77;;
10313;SDS011;5202;49.138;10.090;2022-09-13T01:14:39;3.93;;;3.53;;
10313;SDS011;5202;49.138;10.090;2022-09-13T01:17:10;4.07;;;3.77;;
10313;SDS011;5202;49.138;10.090;2022-09-13T01:19:38;4.30;;;3.83;;
10313;SDS011;5202;49.138;10.090;2022-09-13T01:22:19;4.27;;;3.87;;
10313;SDS011;5202;49.138;10.090;2022-09-13T01:28:23;4.13;;;3.50;;
10313;SDS011;5202;49.138;10.090;2022-09-13T01:31:09;4.10;;;3.80;;
10313;SDS011;5202;49.138;10.090;2022-09-13T01:33:53;4.67;;;3.77;;
10313;SDS011;5202;49.138;10.090;2022-09-13T01:36:50;4.97;;;3.90;;
10313;SDS011;5202;49.138;10.090;2022-09-13T01:39:36;4.17;;;3.77;;
10313;SDS011;5202;49.138;10.090;2022-09-13T01:42:27;4.37;;;3.67;;
10313;SDS011;5202;49.138;10.090;2022-09-13T01:45:05;4.57;;;4.13;;
10313;SDS011;5202;49.138;10.090;2022-09-13T01:47:51;4.67;;;4.17;;
10313;SDS011;5202;49.138;10.090;2022-09-13T01:50:28;4.30;;;3.90;;
10313;SDS011;5202;49.138;10.090;2022-09-13T01:53:06;4.30;;;3.90;;
10313;SDS011;5202;49.138;10.090;2022-09-13T01:55:47;4.87;;;4.30;;
10313;SDS011;5202;49.138;10.090;2022-09-13T01:58:22;5.73;;;4.17;;
10313;SDS011;5202;49.138;10.090;2022-09-13T02:00:55;5.37;;;4.87;;
10313;SDS011;5202;49.138;10.090;2022-09-13T02:03:37;4.90;;;4.50;;
10313;SDS011;5202;49.138;10.090;2022-09-13T02:06:17;6.20;;;4.80;;
10313;SDS011;5202;49.138;10.090;2022-09-13T02:08:50;5.07;;;4.50;;
10313;SDS011;5202;49.138;10.090;2022-09-13T02:11:21;6.70;;;6.00;;
10313;SDS011;5202;49.138;10.090;2022-09-13T02:13:53;6.23;;;5.47;;
10313;SDS011;5202;49.138;10.090;2022-09-13T02:16:27;6.70;;;5.20;;
10313;SDS011;5202;49.138;10.090;2022-09-13T02:19:02;4.90;;;4.50;;
10313;SDS011;5202;49.138;10.090;2022-09-13T02:21:37;4.87;;;4.43;;
10313;SDS011;5202;49.138;10.090;2022-09-13T02:24:09;5.47;;;4.40;;
10313;SDS011;5202;49.138;10.090;2022-09-13T02:26:43;6.47;;;4.73;;
10313;SDS011;5202;49.138;10.090;2022-09-13T02:29:15;7.63;;;4.30;;
10313;SDS011;5202;49.138;10.090;2022-09-13T02:31:46;5.63;;;5.13;;
10313;SDS011;5202;49.138;10.090;2022-09-13T02:34:23;6.10;;;4.60;;
10313;SDS011;5202;49.138;10.090;2022-09-13T02:36:58;5.93;;;5.10;;
10313;SDS011;5202;49.138;10.090;2022-09-13T02:39:29;5.33;;;4.50;;
10313;SDS011;5202;49.138;10.090;2022-09-13T02:42:02;6.03;;;5.10;;
10313;SDS011;5202;49.138;10.090;2022-09-13T02:44:39;6.20;;;5.17;;
10313;SDS011;5202;49.138;10.090;2022-09-13T02:47:15;7.70;;;5.30;;
10313;SDS011;5202;49.138;10.090;2022-09-13T02:50:01;6.33;;;4.87;;
10313;SDS011;5202;49.138;10.090;2022-09-13T02:52:47;5.03;;;4.53;;
10313;SDS011;5202;49.138;10.090;2022-09-13T02:55:20;7.70;;;5.17;;
10313;SDS011;5202;49.138;10.090;2022-09-13T02:57:58;5.20;;;4.70;;
10313;SDS011;5202;49.138;10.090;2022-09-13T03:00:31;4.97;;;4.47;;
10313;SDS011;5202;49.138;10.090;2022-09-13T03:03:01;5.40;;;4.40;;
10313;SDS011;5202;49.138;10.090;2022-09-13T03:05:35;4.80;;;4.40;;
10313;SDS011;5202;49.138;10.090;2022-09-13T03:08:03;4.40;;;4.00;;
10313;SDS011;5202;49.138;10.090;2022-09-13T03:10:34;4.50;;;4.10;;
10313;SDS011;5202;49.138;10.090;2022-09-13T03:13:33;6.03;;;4.20;;
10313;SDS011;5202;49.138;10.090;2022-09-13T03:16:43;4.50;;;4.10;;
10313;SDS011;5202;49.138;10.090;2022-09-13T03:19:36;5.73;;;4.50;;
10313;SDS011;5202;49.138;10.090;2022-09-13T03:22:20;4.70;;;4.20;;
10313;SDS011;5202;49.138;10.090;2022-09-13T03:25:07;5.10;;;4.60;;
10313;SDS011;5202;49.138;10.090;2022-09-13T03:27:49;4.30;;;3.90;;
10313;SDS011;5202;49.138;10.090;2022-09-13T03:30:28;7.27;;;4.83;;
10313;SDS011;5202;49.138;10.090;2022-09-13T03:33:01;5.40;;;4.13;;
10313;SDS011;5202;49.138;10.090;2022-09-13T03:35:38;7.43;;;4.27;;
10313;SDS011;5202;49.138;10.090;2022-09-13T03:38:14;5.43;;;4.70;;
10313;SDS011;5202;49.138;10.090;2022-09-13T03:40:46;8.73;;;4.50;;
10313;SDS011;5202;49.138;10.090;2022-09-13T03:43:17;6.13;;;5.03;;
10313;SDS011;5202;49.138;10.090;2022-09-13T03:45:55;7.87;;;5.00;;
10313;SDS011;5202;49.138;10.090;2022-09-13T03:48:26;5.97;;;4.53;;
10313;SDS011;5202;49.138;10.090;2022-09-13T03:50:56;5.40;;;4.90;;
10313;SDS011;5202;49.138;10.090;2022-09-13T03:53:26;5.70;;;4.60;;
10313;SDS011;5202;49.138;10.090;2022-09-13T03:55:56;4.87;;;4.37;;
10313;SDS011;5202;49.138;10.090;2022-09-13T03:58:25;6.50;;;4.53;;
10313;SDS011;5202;49.138;10.090;2022-09-13T04:00:53;5.63;;;4.73;;
10313;SDS011;5202;49.138;10.090;2022-09-13T04:03:23;5.30;;;4.80;;
10313;SDS011;5202;49.138;10.090;2022-09-13T04:05:51;7.00;;;4.33;;
10313;SDS011;5202;49.138;10.090;2022-09-13T04:08:19;7.70;;;4.07;;
10313;SDS011;5202;49.138;10.090;2022-09-13T04:10:50;5.07;;;4.57;;
10313;SDS011;5202;49.138;10.090;2022-09-13T04:13:18;5.10;;;3.20;;
10313;SDS011;5202;49.138;10.090;2022-09-13T04:15:48;3.53;;;3.13;;
10313;SDS011;5202;49.138;10.090;2022-09-13T04:18:16;7.60;;;4.53;;
10313;SDS011;5202;49.138;10.090;2022-09-13T04:20:51;6.57;;;4.73;;
10313;SDS011;5202;49.138;10.090;2022-09-13T04:23:20;5.13;;;4.60;;
10313;SDS011;5202;49.138;10.090;2022-09-13T04:25:49;8.13;;;4.43;;
10313;SDS011;5202;49.138;10.090;2022-09-13T04:28:21;5.30;;;4.00;;
10313;SDS011;5202;49.138;10.090;2022-09-13T04:30:49;4.57;;;4.17;;
10313;SDS011;5202;49.138;10.090;2022-09-13T04:33:17;4.80;;;4.30;;
10313;SDS011;5202;49.138;10.090;2022-09-13T04:35:45;6.03;;;4.17;;
10313;SDS011;5202;49.138;10.090;2022-09-13T04:38:14;6.73;;;4.00;;
10313;SDS011;5202;49.138;10.090;2022-09-13T04:40:42;6.90;;;4.20;;
10313;SDS011;5202;49.138;10.090;2022-09-13T04:43:12;4.87;;;4.20;;
10313;SDS011;5202;49.138;10.090;2022-09-13T04:45:40;4.97;;;4.47;;
10313;SDS011;5202;49.138;10.090;2022-09-13T04:48:09;5.17;;;4.67;;
10313;SDS011;5202;49.138;10.090;2022-09-13T04:50:37;4.73;;;4.23;;
10313;SDS011;5202;49.138;10.090;2022-09-13T04:53:05;6.87;;;4.10;;
10313;SDS011;5202;49.138;10.090;2022-09-13T04:55:33;5.73;;;4.60;;
10313;SDS011;5202;49.138;10.090;2022-09-13T04:58:02;9.10;;;5.20;;
10313;SDS011;5202;49.138;10.090;2022-09-13T05:00:31;5.50;;;4.47;;
10313;SDS011;5202;49.138;10.090;2022-09-13T05:03:00;5.73;;;4.67;;
10313;SDS011;5202;49.138;10.090;2022-09-13T05:05:28;5.13;;;4.63;;
10313;SDS011;5202;49.138;10.090;2022-09-13T05:07:57;5.20;;;4.70;;
10313;SDS011;5202;49.138;10.090;2022-09-13T05:10:25;4.93;;;4.53;;
10313;SDS011;5202;49.138;10.090;2022-09-13T05:12:54;4.40;;;4.03;;
10313;SDS011;5202;49.138;10.090;2022-09-13T05:15:22;5.70;;;4.37;;
10313;SDS011;5202;49.138;10.090;2022-09-13T05:17:51;5.27;;;4.77;;
10313;SDS011;5202;49.138;10.090;2022-09-13T05:20:19;4.57;;;4.17;;
10313;SDS011;5202;49.138;10.090;2022-09-13T05:22:48;5.63;;;4.27;;
10313;SDS011;5202;49.138;10.090;2022-09-13T05:25:16;4.97;;;4.37;;
10313;SDS011;5202;49.138;10.090;2022-09-13T05:27:49;8.20;;;4.50;;
10313;SDS011;5202;49.138;10.090;2022-09-13T05:30:17;7.97;;;4.63;;
10313;SDS011;5202;49.138;10.090;2022-09-13T05:32:46;5.00;;;4.50;;
10313;SDS011;5202;49.138;10.090;2022-09-13T05:35:15;6.67;;;4.97;;
10313;SDS011;5202;49.138;10.090;2022-09-13T05:37:43;4.50;;;4.10;;
10313;SDS011;5202;49.138;10.090;2022-09-13T05:40:11;4.80;;;4.10;;
10313;SDS011;5202;49.138;10.090;2022-09-13T05:42:40;5.03;;;4.53;;
10313;SDS011;5202;49.138;10.090;2022-09-13T05:45:08;4.40;;;4.10;;
10313;SDS011;5202;49.138;10.090;2022-09-13T05:47:36;6.37;;;4.47;;
10313;SDS011;5202;49.138;10.090;2022-09-13T05:50:05;6.70;;;4.57;;
10313;SDS011;5202;49.138;10.090;2022-09-13T05:52:51;5.07;;;4.50;;
10313;SDS011;5202;49.138;10.090;2022-09-13T05:55:20;5.17;;;4.47;;
10313;SDS011;5202;49.138;10.090;2022-09-13T05:57:48;6.27;;;4.73;;
10313;SDS011;5202;49.138;10.090;2022-09-13T06:00:17;4.90;;;4.20;;
10313;SDS011;5202;49.138;10.090;2022-09-13T06:02:45;6.93;;;4.60;;
10313;SDS011;5202;49.138;10.090;2022-09-13T06:05:13;4.23;;;3.83;;
10313;SDS011;5202;49.138;10.090;2022-09-13T06:07:41;5.13;;;4.63;;
10313;SDS011;5202;49.138;10.090;2022-09-13T06:10:11;4.53;;;4.13;;
10313;SDS011;5202;49.138;10.090;2022-09-13T06:12:39;4.83;;;4.30;;
10313;SDS011;5202;49.138;10.090;2022-09-13T06:15:08;5.00;;;4.43;;
10313;SDS011;5202;49.138;10.090;2022-09-13T06:17:36;4.50;;;4.10;;
10313;SDS011;5202;49.138;10.090;2022-09-13T06:20:05;5.03;;;4.53;;
10313;SDS011;5202;49.138;10.090;2022-09-13T06:22:35;5.43;;;4.50;;
10313;SDS011;5202;49.138;10.090;2022-09-13T06:25:04;5.30;;;4.33;;
10313;SDS011;5202;49.138;10.090;2022-09-13T06:27:36;4.80;;;4.30;;
10313;SDS011;5202;49.138;10.090;2022-09-13T06:30:04;5.57;;;4.57;;
10313;SDS011;5202;49.138;10.090;2022-09-13T06:32:37;6.40;;;4.97;;
10313;SDS011;5202;49.138;10.090;2022-09-13T06:35:06;7.03;;;4.80;;
10313;SDS011;5202;49.138;10.090;2022-09-13T06:37:35;4.73;;;4.33;;
10313;SDS011;5202;49.138;10.090;2022-09-13T06:40:04;7.20;;;5.33;;
10313;SDS011;5202;49.138;10.090;2022-09-13T06:42:33;5.27;;;4.77;;
10313;SDS011;5202;49.138;10.090;2022-09-13T06:45:03;8.33;;;5.50;;
10313;SDS011;5202;49.138;10.090;2022-09-13T06:47:32;5.93;;;5.20;;
10313;SDS011;5202;49.138;10.090;2022-09-13T06:50:01;7.27;;;4.90;;
10313;SDS011;5202;49.138;10.090;2022-09-13T06:52:29;7.10;;;5.00;;
10313;SDS011;5202;49.138;10.090;2022-09-13T06:54:57;7.43;;;4.57;;
10313;SDS011;5202;49.138;10.090;2022-09-13T06:57:28;6.43;;;5.23;;
10313;SDS011;5202;49.138;10.090;2022-09-13T06:59:58;7.30;;;4.57;;
10313;SDS011;5202;49.138;10.090;2022-09-13T07:02:29;6.00;;;5.00;;
10313;SDS011;5202;49.138;10.090;2022-09-13T07:04:58;8.87;;;5.53;;
10313;SDS011;5202;49.138;10.090;2022-09-13T07:07:26;8.60;;;5.13;;
10313;SDS011;5202;49.138;10.090;2022-09-13T07:09:54;9.23;;;5.20;;
10313;SDS011;5202;49.138;10.090;2022-09-13T07:12:22;12.07;;;5.70;;
10313;SDS011;5202;49.138;10.090;2022-09-13T07:14:50;8.87;;;5.23;;
10313;SDS011;5202;49.138;10.090;2022-09-13T07:17:20;7.07;;;4.90;;
10313;SDS011;5202;49.138;10.090;2022-09-13T07:19:48;7.27;;;4.73;;
10313;SDS011;5202;49.138;10.090;2022-09-13T07:22:16;7.80;;;3.97;;
10313;SDS011;5202;49.138;10.090;2022-09-13T07:24:44;5.60;;;4.70;;
10313;SDS011;5202;49.138;10.090;2022-09-13T07:27:12;4.38;;;3.97;;
10313;SDS011;5202;49.138;10.090;2022-09-13T07:29:42;7.00;;;4.05;;
10313;SDS011;5202;49.138;10.090;2022-09-13T07:32:10;4.10;;;3.35;;
10313;SDS011;5202;49.138;10.090;2022-09-13T07:34:39;4.10;;;3.17;;
10313;SDS011;5202;49.138;10.090;2022-09-13T07:37:10;3.70;;;3.00;;
10313;SDS011;5202;49.138;10.090;2022-09-13T07:39:39;3.47;;;3.17;;
10313;SDS011;5202;49.138;10.090;2022-09-13T07:42:07;4.80;;;2.72;;
10313;SDS011;5202;49.138;10.090;2022-09-13T07:44:35;4.60;;;3.38;;
10313;SDS011;5202;49.138;10.090;2022-09-13T07:47:05;3.55;;;3.00;;
10313;SDS011;5202;49.138;10.090;2022-09-13T07:49:33;8.00;;;3.22;;
10313;SDS011;5202;49.138;10.090;2022-09-13T07:52:03;5.28;;;3.13;;
10313;SDS011;5202;49.138;10.090;2022-09-13T07:54:31;2.72;;;2.50;;
10313;SDS011;5202;49.138;10.090;2022-09-13T07:57:00;6.95;;;2.78;;
10313;SDS011;5202;49.138;10.090;2022-09-13T07:59:29;2.80;;;2.60;;
10313;SDS011;5202;49.138;10.090;2022-09-13T08:01:57;3.17;;;2.55;;
10313;SDS011;5202;49.138;10.090;2022-09-13T08:04:25;3.25;;;2.95;;
10313;SDS011;5202;49.138;10.090;2022-09-13T08:06:57;5.05;;;2.80;;
10313;SDS011;5202;49.138;10.090;2022-09-13T08:09:27;5.38;;;3.00;;
10313;SDS011;5202;49.138;10.090;2022-09-13T08:11:55;3.50;;;3.20;;
10313;SDS011;5202;49.138;10.090;2022-09-13T08:14:23;3.53;;;3.22;;
10313;SDS011;5202;49.138;10.090;2022-09-13T08:16:53;3.22;;;2.90;;
10313;SDS011;5202;49.138;10.090;2022-09-13T08:19:23;4.07;;;2.80;;
10313;SDS011;5202;49.138;10.090;2022-09-13T08:21:51;4.68;;;3.05;;
10313;SDS011;5202;49.138;10.090;2022-09-13T08:24:20;5.28;;;3.08;;
10313;SDS011;5202;49.138;10.090;2022-09-13T08:26:52;7.03;;;2.60;;
10313;SDS011;5202;49.138;10.090;2022-09-13T08:29:21;3.28;;;2.30;;
10313;SDS011;5202;49.138;10.090;2022-09-13T08:31:50;2.92;;;2.58;;
10313;SDS011;5202;49.138;10.090;2022-09-13T08:34:19;3.67;;;2.40;;
10313;SDS011;5202;49.138;10.090;2022-09-13T08:36:47;4.32;;;2.40;;
10313;SDS011;5202;49.138;10.090;2022-09-13T08:39:15;3.03;;;2.30;;
10313;SDS011;5202;49.138;10.090;2022-09-13T08:41:54;2.70;;;2.28;;
10313;SDS011;5202;49.138;10.090;2022-09-13T08:44:32;3.15;;;2.50;;
10313;SDS011;5202;49.138;10.090;2022-09-13T08:47:12;6.68;;;2.53;;
10313;SDS011;5202;49.138;10.090;2022-09-13T08:49:55;6.38;;;2.42;;
10313;SDS011;5202;49.138;10.090;2022-09-13T08:52:33;4.00;;;2.33;;
10313;SDS011;5202;49.138;10.090;2022-09-13T08:55:17;4.13;;;2.70;;
10313;SDS011;5202;49.138;10.090;2022-09-13T08:57:54;4.25;;;2.35;;
10313;SDS011;5202;49.138;10.090;2022-09-13T09:00:29;3.47;;;2.47;;
10313;SDS011;5202;49.138;10.090;2022-09-13T09:03:13;5.72;;;2.63;;
10313;SDS011;5202;49.138;10.090;2022-09-13T09:05:48;3.20;;;2.67;;
10313;SDS011;5202;49.138;10.090;2022-09-13T09:08:24;4.70;;;2.40;;
10313;SDS011;5202;49.138;10.090;2022-09-13T09:11:01;3.30;;;2.45;;
10313;SDS011;5202;49.138;10.090;2022-09-13T09:13:35;2.80;;;2.58;;
10313;SDS011;5202;49.138;10.090;2022-09-13T09:16:15;5.25;;;2.25;;
10313;SDS011;5202;49.138;10.090;2022-09-13T09:18:55;4.95;;;3.00;;
10313;SDS011;5202;49.138;10.090;2022-09-13T09:21:26;3.38;;;2.40;;
10313;SDS011;5202;49.138;10.090;2022-09-13T09:23:54;4.47;;;2.55;;
10313;SDS011;5202;49.138;10.090;2022-09-13T09:26:25;3.00;;;2.10;;
10313;SDS011;5202;49.138;10.090;2022-09-13T09:28:59;3.38;;;2.10;;
10313;SDS011;5202;49.138;10.090;2022-09-13T09:31:52;4.78;;;2.45;;
10313;SDS011;5202;49.138;10.090;2022-09-13T09:34:38;4.95;;;2.55;;
10313;SDS011;5202;49.138;10.090;2022-09-13T09:37:18;4.22;;;2.47;;
10313;SDS011;5202;49.138;10.090;2022-09-13T09:39:50;5.43;;;2.45;;
10313;SDS011;5202;49.138;10.090;2022-09-13T09:42:20;4.78;;;3.15;;
10313;SDS011;5202;49.138;10.090;2022-09-13T09:44:56;4.05;;;2.83;;
10313;SDS011;5202;49.138;10.090;2022-09-13T09:47:30;5.18;;;2.90;;
10313;SDS011;5202;49.138;10.090;2022-09-13T09:50:09;3.45;;;2.50;;
10313;SDS011;5202;49.138;10.090;2022-09-13T09:52:42;4.22;;;3.40;;
10313;SDS011;5202;49.138;10.090;2022-09-13T09:55:18;8.98;;;3.35;;
10313;SDS011;5202;49.138;10.090;2022-09-13T09:57:54;4.05;;;3.65;;
10313;SDS011;5202;49.138;10.090;2022-09-13T10:00:28;4.82;;;3.42;;
10313;SDS011;5202;49.138;10.090;2022-09-13T10:03:00;5.85;;;3.97;;
10313;SDS011;5202;49.138;10.090;2022-09-13T10:05:34;6.93;;;3.83;;
10313;SDS011;5202;49.138;10.090;2022-09-13T10:08:03;9.05;;;3.90;;
10313;SDS011;5202;49.138;10.090;2022-09-13T10:10:35;6.20;;;3.67;;
10313;SDS011;5202;49.138;10.090;2022-09-13T10:13:11;4.07;;;3.25;;
10313;SDS011;5202;49.138;10.090;2022-09-13T10:15:52;6.28;;;3.95;;
10313;SDS011;5202;49.138;10.090;2022-09-13T10:18:23;4.00;;;3.00;;
10313;SDS011;5202;49.138;10.090;2022-09-13T10:21:20;5.72;;;3.47;;
10313;SDS011;5202;49.138;10.090;2022-09-13T10:23:51;6.50;;;3.20;;
10313;SDS011;5202;49.138;10.090;2022-09-13T10:26:42;5.13;;;3.42;;
10313;SDS011;5202;49.138;10.090;2022-09-13T10:29:12;3.40;;;3.10;;
10313;SDS011;5202;49.138;10.090;2022-09-13T10:31:45;4.03;;;3.00;;
10313;SDS011;5202;49.138;10.090;2022-09-13T10:34:19;4.55;;;3.35;;
10313;SDS011;5202;49.138;10.090;2022-09-13T10:36:51;4.45;;;2.80;;
10313;SDS011;5202;49.138;10.090;2022-09-13T10:39:24;6.53;;;2.30;;
10313;SDS011;5202;49.138;10.090;2022-09-13T10:41:55;6.38;;;2.50;;
10313;SDS011;5202;49.138;10.090;2022-09-13T10:44:28;3.58;;;2.60;;
10313;SDS011;5202;49.138;10.090;2022-09-13T10:47:05;2.97;;;2.10;;
10313;SDS011;5202;49.138;10.090;2022-09-13T10:49:40;5.15;;;2.17;;
10313;SDS011;5202;49.138;10.090;2022-09-13T10:55:15;4.82;;;2.10;;
10313;SDS011;5202;49.138;10.090;2022-09-13T10:58:11;2.53;;;1.80;;
10313;SDS011;5202;49.138;10.090;2022-09-13T11:00:57;2.20;;;2.00;;
10313;SDS011;5202;49.138;10.090;2022-09-13T11:07:06;2.30;;;1.58;;
10313;SDS011;5202;49.138;10.090;2022-09-13T11:10:02;1.90;;;1.75;;
10313;SDS011;5202;49.138;10.090;2022-09-13T11:12:41;1.90;;;1.80;;
10313;SDS011;5202;49.138;10.090;2022-09-13T11:15:21;3.65;;;1.70;;
10313;SDS011;5202;49.138;10.090;2022-09-13T11:18:12;2.92;;;1.70;;
10313;SDS011;5202;49.138;10.090;2022-09-13T11:21:21;1.95;;;1.70;;
10313;SDS011;5202;49.138;10.090;2022-09-13T11:26:59;2.22;;;1.67;;
10313;SDS011;5202;49.138;10.090;2022-09-13T11:32:44;2.10;;;1.70;;
10313;SDS011;5202;49.138;10.090;2022-09-13T11:35:33;3.25;;;1.63;;
10313;SDS011;5202;49.138;10.090;2022-09-13T11:38:21;2.67;;;1.25;;
10313;SDS011;5202;49.138;10.090;2022-09-13T11:41:05;2.55;;;1.70;;
10313;SDS011;5202;49.138;10.090;2022-09-13T11:43:50;4.07;;;1.50;;
10313;SDS011;5202;49.138;10.090;2022-09-13T11:46:34;2.33;;;1.42;;
10313;SDS011;5202;49.138;10.090;2022-09-13T11:49:15;2.40;;;1.33;;
10313;SDS011;5202;49.138;10.090;2022-09-13T11:52:16;6.65;;;1.67;;
10313;SDS011;5202;49.138;10.090;2022-09-13T11:54:58;1.70;;;1.50;;
10313;SDS011;5202;49.138;10.090;2022-09-13T11:57:38;2.17;;;1.33;;
10313;SDS011;5202;49.138;10.090;2022-09-13T12:00:14;2.13;;;1.35;;
10313;SDS011;5202;49.138;10.090;2022-09-13T12:02:50;1.40;;;1.30;;
10313;SDS011;5202;49.138;10.090;2022-09-13T12:05:55;5.43;;;1.77;;
10313;SDS011;5202;49.138;10.090;2022-09-13T12:08:28;1.60;;;1.30;;
10313;SDS011;5202;49.138;10.090;2022-09-13T12:11:01;1.77;;;1.40;;
10313;SDS011;5202;49.138;10.090;2022-09-13T12:13:41;1.50;;;1.40;;
10313;SDS011;5202;49.138;10.090;2022-09-13T12:16:15;1.90;;;1.40;;
10313;SDS011;5202;49.138;10.090;2022-09-13T12:18:50;2.45;;;1.20;;
10313;SDS011;5202;49.138;10.090;2022-09-13T12:21:23;1.88;;;1.42;;
10313;SDS011;5202;49.138;10.090;2022-09-13T12:23:59;1.50;;;1.40;;
10313;SDS011;5202;49.138;10.090;2022-09-13T12:26:34;2.55;;;1.23;;
10313;SDS011;5202;49.138;10.090;2022-09-13T12:29:10;1.58;;;1.30;;
10313;SDS011;5202;49.138;10.090;2022-09-13T12:31:43;2.13;;;1.50;;
10313;SDS011;5202;49.138;10.090;2022-09-13T12:34:14;2.45;;;1.52;;
10313;SDS011;5202;49.138;10.090;2022-09-13T12:36:58;2.10;;;1.52;;
10313;SDS011;5202;49.138;10.090;2022-09-13T12:39:58;2.92;;;1.30;;
10313;SDS011;5202;49.138;10.090;2022-09-13T12:45:52;1.25;;;1.15;;
10313;SDS011;5202;49.138;10.090;2022-09-13T12:48:55;3.30;;;1.20;;
10313;SDS011;5202;49.138;10.090;2022-09-13T12:51:57;0.93;;;0.93;;
10313;SDS011;5202;49.138;10.090;2022-09-13T12:54:53;2.15;;;1.15;;
10313;SDS011;5202;49.138;10.090;2022-09-13T12:58:13;1.10;;;1.00;;
10313;SDS011;5202;49.138;10.090;2022-09-13T13:03:47;4.10;;;1.15;;
10313;SDS011;5202;49.138;10.090;2022-09-13T13:06:24;1.15;;;1.05;;
10313;SDS011;5202;49.138;10.090;2022-09-13T13:08:59;1.10;;;1.00;;
10313;SDS011;5202;49.138;10.090;2022-09-13T13:11:40;1.35;;;1.10;;
10313;SDS011;5202;49.138;10.090;2022-09-13T13:17:34;2.35;;;1.30;;
10313;SDS011;5202;49.138;10.090;2022-09-13T13:23:30;2.80;;;1.20;;
10313;SDS011;5202;49.138;10.090;2022-09-13T13:26:02;3.85;;;1.10;;
10313;SDS011;5202;49.138;10.090;2022-09-13T13:28:51;1.63;;;1.20;;
10313;SDS011;5202;49.138;10.090;2022-09-13T13:34:41;5.03;;;1.30;;
10313;SDS011;5202;49.138;10.090;2022-09-13T13:40:21;1.35;;;1.10;;
10313;SDS011;5202;49.138;10.090;2022-09-13T13:45:57;2.55;;;1.40;;
10313;SDS011;5202;49.138;10.090;2022-09-13T13:57:58;2.80;;;1.40;;
10313;SDS011;5202;49.138;10.090;2022-09-13T14:00:29;2.50;;;1.10;;
10313;SDS011;5202;49.138;10.090;2022-09-13T14:03:05;2.55;;;1.40;;
10313;SDS011;5202;49.138;10.090;2022-09-13T14:05:47;1.23;;;1.13;;
10313;SDS011;5202;49.138;10.090;2022-09-13T14:08:31;3.33;;;1.40;;
10313;SDS011;5202;49.138;10.090;2022-09-13T14:11:12;2.75;;;1.40;;
10313;SDS011;5202;49.138;10.090;2022-09-13T14:13:55;3.75;;;1.40;;
10313;SDS011;5202;49.138;10.090;2022-09-13T14:16:40;1.65;;;1.30;;
10313;SDS011;5202;49.138;10.090;2022-09-13T14:19:23;3.45;;;1.30;;
10313;SDS011;5202;49.138;10.090;2022-09-13T14:22:05;3.38;;;1.40;;
10313;SDS011;5202;49.138;10.090;2022-09-13T14:24:40;1.70;;;1.30;;
10313;SDS011;5202;49.138;10.090;2022-09-13T14:27:15;4.15;;;1.45;;
10313;SDS011;5202;49.138;10.090;2022-09-13T14:29:48;3.95;;;1.70;;
10313;SDS011;5202;49.138;10.090;2022-09-13T14:32:19;9.63;;;1.67;;
10313;SDS011;5202;49.138;10.090;2022-09-13T14:34:51;5.72;;;1.80;;
10313;SDS011;5202;49.138;10.090;2022-09-13T14:37:26;3.58;;;1.42;;
10313;SDS011;5202;49.138;10.090;2022-09-13T14:39:57;2.38;;;1.38;;
10313;SDS011;5202;49.138;10.090;2022-09-13T14:42:37;6.85;;;1.50;;
10313;SDS011;5202;49.138;10.090;2022-09-13T14:45:11;1.77;;;1.60;;
10313;SDS011;5202;49.138;10.090;2022-09-13T14:47:43;4.32;;;1.48;;
10313;SDS011;5202;49.138;10.090;2022-09-13T14:50:20;5.50;;;1.50;;
10313;SDS011;5202;49.138;10.090;2022-09-13T14:52:56;2.15;;;1.50;;
10313;SDS011;5202;49.138;10.090;2022-09-13T14:55:28;2.85;;;1.70;;
10313;SDS011;5202;49.138;10.090;2022-09-13T14:58:01;1.35;;;1.25;;
10313;SDS011;5202;49.138;10.090;2022-09-13T15:00:32;2.80;;;1.40;;
10313;SDS011;5202;49.138;10.090;2022-09-13T15:03:10;3.63;;;1.30;;
10313;SDS011;5202;49.138;10.090;2022-09-13T15:05:48;3.72;;;1.48;;
10313;SDS011;5202;49.138;10.090;2022-09-13T15:11:15;1.95;;;1.40;;
10313;SDS011;5202;49.138;10.090;2022-09-13T15:16:53;2.15;;;1.40;;
10313;SDS011;5202;49.138;10.090;2022-09-13T15:19:27;1.27;;;1.23;;
10313;SDS011;5202;49.138;10.090;2022-09-13T15:22:03;1.50;;;1.40;;
10313;SDS011;5202;49.138;10.090;2022-09-13T15:24:46;2.03;;;1.40;;
10313;SDS011;5202;49.138;10.090;2022-09-13T15:27:19;1.50;;;1.40;;
10313;SDS011;5202;49.138;10.090;2022-09-13T15:29:55;3.47;;;1.50;;
10313;SDS011;5202;49.138;10.090;2022-09-13T15:32:30;1.35;;;1.23;;
10313;SDS011;5202;49.138;10.090;2022-09-13T15:35:01;1.52;;;1.25;;
10313;SDS011;5202;49.138;10.090;2022-09-13T15:37:30;3.40;;;1.40;;
10313;SDS011;5202;49.138;10.090;2022-09-13T15:40:07;1.50;;;1.40;;
10313;SDS011;5202;49.138;10.090;2022-09-13T15:42:46;2.13;;;1.25;;
10313;SDS011;5202;49.138;10.090;2022-09-13T15:45:15;3.47;;;1.45;;
10313;SDS011;5202;49.138;10.090;2022-09-13T15:47:45;2.13;;;1.30;;
10313;SDS011;5202;49.138;10.090;2022-09-13T15:50:22;2.25;;;1.52;;
10313;SDS011;5202;49.138;10.090;2022-09-13T15:52:53;1.40;;;1.30;;
10313;SDS011;5202;49.138;10.090;2022-09-13T15:55:23;7.57;;;1.35;;
10313;SDS011;5202;49.138;10.090;2022-09-13T15:57:53;1.50;;;1.40;;
10313;SDS011;5202;49.138;10.090;2022-09-13T16:00:22;1.63;;;1.35;;
10313;SDS011;5202;49.138;10.090;2022-09-13T16:02:52;4.30;;;1.50;;
10313;SDS011;5202;49.138;10.090;2022-09-13T16:05:20;1.25;;;1.13;;
10313;SDS011;5202;49.138;10.090;2022-09-13T16:07:49;3.83;;;1.35;;
10313;SDS011;5202;49.138;10.090;2022-09-13T16:10:20;4.00;;;1.40;;
10313;SDS011;5202;49.138;10.090;2022-09-13T16:12:50;1.38;;;1.27;;
10313;SDS011;5202;49.138;10.090;2022-09-13T16:15:20;2.55;;;1.77;;
10313;SDS011;5202;49.138;10.090;2022-09-13T16:17:48;5.72;;;1.63;;
10313;SDS011;5202;49.138;10.090;2022-09-13T16:20:16;1.92;;;1.75;;
10313;SDS011;5202;49.138;10.090;2022-09-13T16:22:45;1.90;;;1.80;;
10313;SDS011;5202;49.138;10.090;2022-09-13T16:25:13;1.60;;;1.30;;